sensor_id;sensor_type;location;lat;lon;timestamp;pressure;altitude;pressure_sealevel;temperature;humidity
61500;BME280;47361;49.996;19.918;2023-07-09T00:00:55;99155.53;;;15.8;67
61500;BME280;47361;49.996;19.918;2023-07-09T00:01:55;99154.36;;;15.7;67
61500;BME280;47361;49.996;19.918;2023-07-09T00:04:55;99151.45;;;15.8;67
61500;BME280;47361;49.996;19.918;2023-07-09T00:11:55;99155.45;;;15.7;67
61500;BME280;47361;49.996;19.918;2023-07-09T00:13:55;99154.45999999999;;;15.6;67
61500;BME280;47361;49.996;19.918;2023-07-09T00:17:56;99154.79000000001;;;15.5;67
61500;BME280;47361;49.996;19.918;2023-07-09T00:23:55;99158.15;;;15.6;67
61500;BME280;47361;49.996;19.918;2023-07-09T00:25:55;99160.44;;;15.7;67
61500;BME280;47361;49.996;19.918;2023-07-09T00:28:55;99165.01;;;15.6;66
61500;BME280;47361;49.996;19.918;2023-07-09T00:32:55;99164.43000000001;;;15.5;67
61500;BME280;47361;49.996;19.918;2023-07-09T00:33:55;99162.67;;;15.4;67
61500;BME280;47361;49.996;19.918;2023-07-09T00:37:55;99160.32;;;15.3;67
61500;BME280;47361;49.996;19.918;2023-07-09T00:39:55;99163.3;;;15.2;67
61500;BME280;47361;49.996;19.918;2023-07-09T00:41:55;99163.53;;;15.1;67
61500;BME280;47361;49.996;19.918;2023-07-09T00:44:55;99166.35;;;15.2;68
61500;BME280;47361;49.996;19.918;2023-07-09T00:51:55;99167.76999999999;;;15.1;67
61500;BME280;47361;49.996;19.918;2023-07-09T00:53:57;99168.25;;;15.0;67
61500;BME280;47361;49.996;19.918;2023-07-09T00:56:56;99167.86;;;14.9;68
61500;BME280;47361;49.996;19.918;2023-07-09T01:03:56;99160.33;;;14.8;68
61500;BME280;47361;49.996;19.918;2023-07-09T01:04:56;99159.55;;;14.9;68
61500;BME280;47361;49.996;19.918;2023-07-09T01:07:55;99157.65;;;14.8;68
61500;BME280;47361;49.996;19.918;2023-07-09T01:10:55;99158.5;;;14.9;68
61500;BME280;47361;49.996;19.918;2023-07-09T01:15:55;99159.23;;;15.0;68
61500;BME280;47361;49.996;19.918;2023-07-09T01:17:55;99157.54;;;14.9;68
61500;BME280;47361;49.996;19.918;2023-07-09T01:19:56;99159.45;;;15.0;68
61500;BME280;47361;49.996;19.918;2023-07-09T01:23:55;99158.43;;;14.9;67
61500;BME280;47361;49.996;19.918;2023-07-09T01:24:57;99158.18000000001;;;15.0;67
61500;BME280;47361;49.996;19.918;2023-07-09T01:25:55;99153.74;;;14.9;67
61500;BME280;47361;49.996;19.918;2023-07-09T01:27:56;99155.08;;;14.8;67
61500;BME280;47361;49.996;19.918;2023-07-09T01:33:55;99151.59;;;14.7;68
61500;BME280;47361;49.996;19.918;2023-07-09T01:34:57;99151.4;;;14.8;68
61500;BME280;47361;49.996;19.918;2023-07-09T01:37:55;99151.76;;;14.7;68
61500;BME280;47361;49.996;19.918;2023-07-09T01:39:55;99150.51;;;14.8;68
61500;BME280;47361;49.996;19.918;2023-07-09T01:40:55;99153.64;;;14.7;67
61500;BME280;47361;49.996;19.918;2023-07-09T01:43:55;99152.56000000001;;;14.6;68
61500;BME280;47361;49.996;19.918;2023-07-09T01:44:55;99151.28;;;14.7;68
61500;BME280;47361;49.996;19.918;2023-07-09T01:46:55;99149.92;;;14.6;68
61500;BME280;47361;49.996;19.918;2023-07-09T01:49:55;99155.26999999999;;;14.7;68
61500;BME280;47361;49.996;19.918;2023-07-09T01:51:56;99153.86;;;14.6;68
61500;BME280;47361;49.996;19.918;2023-07-09T01:53:55;99158.1;;;14.5;68
61500;BME280;47361;49.996;19.918;2023-07-09T01:55:55;99155.53;;;14.4;68
61500;BME280;47361;49.996;19.918;2023-07-09T01:57:55;99157.4;;;14.3;68
61500;BME280;47361;49.996;19.918;2023-07-09T01:59:55;99161.97;;;14.4;69
61500;BME280;47361;49.996;19.918;2023-07-09T02:01:55;99160.31;;;14.3;69
61500;BME280;47361;49.996;19.918;2023-07-09T02:07:55;99156.81;;;14.2;69
61500;BME280;47361;49.996;19.918;2023-07-09T02:12:58;99162.98000000001;;;14.1;69
61500;BME280;47361;49.996;19.918;2023-07-09T02:21:55;99170.09000000001;;;14.0;69
61500;BME280;47361;49.996;19.918;2023-07-09T02:27:55;99179.64;;;13.9;70
61500;BME280;47361;49.996;19.918;2023-07-09T02:31:56;99181.14;;;13.8;70
61500;BME280;47361;49.996;19.918;2023-07-09T02:34:56;99181.32;;;13.9;70
61500;BME280;47361;49.996;19.918;2023-07-09T02:39:55;99187.93;;;14.0;70
61500;BME280;47361;49.996;19.918;2023-07-09T02:41:55;99189.75;;;13.9;70
61500;BME280;47361;49.996;19.918;2023-07-09T02:43:55;99191.76999999999;;;13.8;70
61500;BME280;47361;49.996;19.918;2023-07-09T02:49:55;99192.33;;;13.9;70
61500;BME280;47361;49.996;19.918;2023-07-09T02:52:55;99192.03;;;13.8;70
61500;BME280;47361;49.996;19.918;2023-07-09T02:54:55;99193.79000000001;;;13.9;70
61500;BME280;47361;49.996;19.918;2023-07-09T02:55:55;99198.61;;;13.8;70
61500;BME280;47361;49.996;19.918;2023-07-09T02:57:55;99202.8;;;13.7;70
61500;BME280;47361;49.996;19.918;2023-07-09T02:58:55;99200.7;;;13.6;70
61500;BME280;47361;49.996;19.918;2023-07-09T03:02:56;99205.28;;;13.5;71
61500;BME280;47361;49.996;19.918;2023-07-09T03:03:55;99204.37;;;13.4;71
61500;BME280;47361;49.996;19.918;2023-07-09T03:04:55;99204.06;;;13.5;71
61500;BME280;47361;49.996;19.918;2023-07-09T03:05:55;99210.05;;;13.4;71
61500;BME280;47361;49.996;19.918;2023-07-09T03:08:55;99212.23999999999;;;13.3;72
61500;BME280;47361;49.996;19.918;2023-07-09T03:09:55;99204.86;;;13.4;72
61500;BME280;47361;49.996;19.918;2023-07-09T03:14:56;99213.05;;;13.5;72
61500;BME280;47361;49.996;19.918;2023-07-09T03:17:55;99210.14;;;13.4;72
61500;BME280;47361;49.996;19.918;2023-07-09T03:19:55;99209.5;;;13.5;72
61500;BME280;47361;49.996;19.918;2023-07-09T03:21:55;99213.23;;;13.4;72
61500;BME280;47361;49.996;19.918;2023-07-09T03:24:55;99213.84000000001;;;13.5;72
61500;BME280;47361;49.996;19.918;2023-07-09T03:25:56;99212.78;;;13.6;72
61500;BME280;47361;49.996;19.918;2023-07-09T03:34:55;99217.19;;;13.7;72
61500;BME280;47361;49.996;19.918;2023-07-09T03:36:56;99218.25;;;13.6;73
61500;BME280;47361;49.996;19.918;2023-07-09T03:39:55;99225.37;;;13.7;73
61500;BME280;47361;49.996;19.918;2023-07-09T03:44:55;99217.33;;;13.8;73
61500;BME280;47361;49.996;19.918;2023-07-09T03:49:56;99209.42;;;13.9;73
61500;BME280;47361;49.996;19.918;2023-07-09T03:51:55;99214.85;;;13.8;73
61500;BME280;47361;49.996;19.918;2023-07-09T03:52:55;99212.13;;;13.9;73
61500;BME280;47361;49.996;19.918;2023-07-09T03:54:55;99215.86;;;14.0;73
61500;BME280;47361;49.996;19.918;2023-07-09T03:58:55;99213.26000000001;;;14.1;73
61500;BME280;47361;49.996;19.918;2023-07-09T03:59:55;99212.36;;;14.2;72
61500;BME280;47361;49.996;19.918;2023-07-09T04:03:56;99210.82;;;14.3;72
61500;BME280;47361;49.996;19.918;2023-07-09T04:07:55;99209.12;;;14.2;72
61500;BME280;47361;49.996;19.918;2023-07-09T04:08:55;99211.65999999999;;;14.3;73
61500;BME280;47361;49.996;19.918;2023-07-09T04:14:56;99213.08;;;14.4;73
61500;BME280;47361;49.996;19.918;2023-07-09T04:20:55;99212.0;;;14.5;72
61500;BME280;47361;49.996;19.918;2023-07-09T04:21:55;99214.17;;;14.4;73
61500;BME280;47361;49.996;19.918;2023-07-09T04:24:55;99213.45;;;14.5;73
61500;BME280;47361;49.996;19.918;2023-07-09T04:25:56;99210.16;;;14.4;73
61500;BME280;47361;49.996;19.918;2023-07-09T04:29:55;99207.08;;;14.5;73
61500;BME280;47361;49.996;19.918;2023-07-09T04:32:56;99206.56;;;14.6;73
61500;BME280;47361;49.996;19.918;2023-07-09T04:34:55;99204.17;;;14.7;73
61500;BME280;47361;49.996;19.918;2023-07-09T04:37:56;99206.17;;;14.8;73
61500;BME280;47361;49.996;19.918;2023-07-09T04:39:55;99205.70999999999;;;14.9;73
61500;BME280;47361;49.996;19.918;2023-07-09T04:42:55;99207.2;;;15.0;74
61500;BME280;47361;49.996;19.918;2023-07-09T04:44:55;99207.79;;;15.1;74
61500;BME280;47361;49.996;19.918;2023-07-09T04:45:55;99205.04;;;15.2;73
61500;BME280;47361;49.996;19.918;2023-07-09T04:47:55;99204.3;;;15.3;73
61500;BME280;47361;49.996;19.918;2023-07-09T04:48:56;99203.3;;;15.4;73
61500;BME280;47361;49.996;19.918;2023-07-09T04:49:55;99204.61;;;15.5;73
61500;BME280;47361;49.996;19.918;2023-07-09T04:51:55;99205.58;;;15.6;72
61500;BME280;47361;49.996;19.918;2023-07-09T04:53:55;99205.16;;;15.7;72
61500;BME280;47361;49.996;19.918;2023-07-09T04:54:55;99207.54;;;15.8;72
61500;BME280;47361;49.996;19.918;2023-07-09T04:57:55;99201.31;;;15.9;71
61500;BME280;47361;49.996;19.918;2023-07-09T04:58:55;99204.33;;;16.0;71
61500;BME280;47361;49.996;19.918;2023-07-09T04:59:56;99201.89;;;16.1;71
61500;BME280;47361;49.996;19.918;2023-07-09T05:01:55;99202.62;;;16.2;70
61500;BME280;47361;49.996;19.918;2023-07-09T05:03:55;99203.9;;;16.3;70
61500;BME280;47361;49.996;19.918;2023-07-09T05:04:55;99204.88;;;16.4;70
61500;BME280;47361;49.996;19.918;2023-07-09T05:06:56;99208.67;;;16.5;69
61500;BME280;47361;49.996;19.918;2023-07-09T05:08:55;99202.42;;;16.6;69
61500;BME280;47361;49.996;19.918;2023-07-09T05:09:55;99208.59;;;16.7;68
61500;BME280;47361;49.996;19.918;2023-07-09T05:13:56;99208.5;;;16.8;68
61500;BME280;47361;49.996;19.918;2023-07-09T05:14:56;99206.15000000001;;;16.9;67
61500;BME280;47361;49.996;19.918;2023-07-09T05:18:56;99211.86;;;17.0;68
61500;BME280;47361;49.996;19.918;2023-07-09T05:21:55;99213.81;;;17.1;67
61500;BME280;47361;49.996;19.918;2023-07-09T05:23:55;99211.40000000001;;;17.2;66
61500;BME280;47361;49.996;19.918;2023-07-09T05:25:56;99210.41;;;17.3;66
61500;BME280;47361;49.996;19.918;2023-07-09T05:27:56;99213.47;;;17.4;67
61500;BME280;47361;49.996;19.918;2023-07-09T05:29:55;99215.34;;;17.5;66
61500;BME280;47361;49.996;19.918;2023-07-09T05:32:56;99216.85;;;17.6;66
61500;BME280;47361;49.996;19.918;2023-07-09T05:33:55;99215.89;;;17.7;66
61500;BME280;47361;49.996;19.918;2023-07-09T05:34:55;99218.92;;;17.8;66
61500;BME280;47361;49.996;19.918;2023-07-09T05:36:56;99214.76;;;17.9;66
61500;BME280;47361;49.996;19.918;2023-07-09T05:38:56;99211.01999999999;;;18.0;65
61500;BME280;47361;49.996;19.918;2023-07-09T05:39:56;99206.2;;;18.1;65
61500;BME280;47361;49.996;19.918;2023-07-09T05:40:59;99208.98;;;18.2;65
61500;BME280;47361;49.996;19.918;2023-07-09T05:43:56;99205.94;;;18.3;64
61500;BME280;47361;49.996;19.918;2023-07-09T05:45:56;99209.19;;;18.4;64
61500;BME280;47361;49.996;19.918;2023-07-09T05:48:56;99209.43;;;18.5;62
61500;BME280;47361;49.996;19.918;2023-07-09T05:50:56;99213.06;;;18.6;62
61500;BME280;47361;49.996;19.918;2023-07-09T05:53:56;99213.45;;;18.7;61
61500;BME280;47361;49.996;19.918;2023-07-09T05:55:56;99214.08;;;18.8;62
61500;BME280;47361;49.996;19.918;2023-07-09T05:58:56;99217.76999999999;;;18.9;62
61500;BME280;47361;49.996;19.918;2023-07-09T05:59:56;99217.53;;;19.0;62
61500;BME280;47361;49.996;19.918;2023-07-09T06:01:56;99219.83;;;19.1;61
61500;BME280;47361;49.996;19.918;2023-07-09T06:03:56;99221.34;;;19.2;61
61500;BME280;47361;49.996;19.918;2023-07-09T06:04:56;99225.39;;;19.3;60
61500;BME280;47361;49.996;19.918;2023-07-09T06:05:57;99224.34;;;19.4;60
61500;BME280;47361;49.996;19.918;2023-07-09T06:06:56;99225.44;;;19.5;60
61500;BME280;47361;49.996;19.918;2023-07-09T06:09:56;99223.81;;;19.6;59
61500;BME280;47361;49.996;19.918;2023-07-09T06:11:56;99225.72;;;19.7;57
61500;BME280;47361;49.996;19.918;2023-07-09T06:13:56;99226.23;;;19.8;58
61500;BME280;47361;49.996;19.918;2023-07-09T06:14:56;99225.53;;;19.9;58
61500;BME280;47361;49.996;19.918;2023-07-09T06:17:56;99221.01;;;20.0;57
61500;BME280;47361;49.996;19.918;2023-07-09T06:20:56;99218.81;;;20.1;55
61500;BME280;47361;49.996;19.918;2023-07-09T06:23:56;99220.87;;;20.2;56
61500;BME280;47361;49.996;19.918;2023-07-09T06:24:56;99222.66;;;20.3;56
61500;BME280;47361;49.996;19.918;2023-07-09T06:28:56;99226.56;;;20.4;56
61500;BME280;47361;49.996;19.918;2023-07-09T06:30:56;99224.31;;;20.5;56
61500;BME280;47361;49.996;19.918;2023-07-09T06:34:56;99227.56000000001;;;20.6;55
61500;BME280;47361;49.996;19.918;2023-07-09T06:37:56;99226.83;;;20.7;57
61500;BME280;47361;49.996;19.918;2023-07-09T06:38:56;99227.81;;;20.8;56
61500;BME280;47361;49.996;19.918;2023-07-09T06:39:56;99228.53;;;20.9;56
61500;BME280;47361;49.996;19.918;2023-07-09T06:41:56;99226.54;;;21.0;54
61500;BME280;47361;49.996;19.918;2023-07-09T06:43:56;99228.78;;;21.1;54
61500;BME280;47361;49.996;19.918;2023-07-09T06:44:56;99227.45;;;21.2;54
61500;BME280;47361;49.996;19.918;2023-07-09T06:46:56;99227.88;;;21.3;54
61500;BME280;47361;49.996;19.918;2023-07-09T06:48:56;99230.97;;;21.4;53
61500;BME280;47361;49.996;19.918;2023-07-09T06:53:56;99225.84000000001;;;21.5;53
61500;BME280;47361;49.996;19.918;2023-07-09T06:55:56;99224.42;;;21.6;53
61500;BME280;47361;49.996;19.918;2023-07-09T06:58:56;99226.31;;;21.7;53
61500;BME280;47361;49.996;19.918;2023-07-09T07:03:56;99216.74;;;21.8;53
61500;BME280;47361;49.996;19.918;2023-07-09T07:04:56;99221.06;;;21.9;54
61500;BME280;47361;49.996;19.918;2023-07-09T07:07:56;99213.67;;;22.0;53
61500;BME280;47361;49.996;19.918;2023-07-09T07:08:56;99213.76000000001;;;22.1;53
61500;BME280;47361;49.996;19.918;2023-07-09T07:12:56;99207.46;;;22.2;50
61500;BME280;47361;49.996;19.918;2023-07-09T07:17:56;99210.08;;;22.3;49
61500;BME280;47361;49.996;19.918;2023-07-09T07:19:56;99210.96;;;22.4;50
61500;BME280;47361;49.996;19.918;2023-07-09T07:21:56;99208.28;;;22.5;49
61500;BME280;47361;49.996;19.918;2023-07-09T07:23:56;99209.09;;;22.6;49
61500;BME280;47361;49.996;19.918;2023-07-09T07:24:56;99205.26;;;22.7;49
61500;BME280;47361;49.996;19.918;2023-07-09T07:26:56;99209.29;;;22.8;48
61500;BME280;47361;49.996;19.918;2023-07-09T07:28:56;99206.36;;;22.9;47
61500;BME280;47361;49.996;19.918;2023-07-09T07:29:56;99209.11;;;23.0;48
61500;BME280;47361;49.996;19.918;2023-07-09T07:31:56;99210.82;;;23.1;48
61500;BME280;47361;49.996;19.918;2023-07-09T07:35:56;99212.78;;;23.2;45
61500;BME280;47361;49.996;19.918;2023-07-09T07:38:56;99210.51;;;23.3;46
61500;BME280;47361;49.996;19.918;2023-07-09T07:41:56;99208.09000000001;;;23.4;46
61500;BME280;47361;49.996;19.918;2023-07-09T07:43:56;99208.76;;;23.5;47
61500;BME280;47361;49.996;19.918;2023-07-09T07:45:56;99208.88;;;23.6;46
61500;BME280;47361;49.996;19.918;2023-07-09T07:49:56;99209.56;;;23.7;46
61500;BME280;47361;49.996;19.918;2023-07-09T07:52:56;99211.35;;;23.8;46
61500;BME280;47361;49.996;19.918;2023-07-09T07:53:56;99208.44;;;23.9;46
61500;BME280;47361;49.996;19.918;2023-07-09T07:55:56;99209.12;;;24.0;45
61500;BME280;47361;49.996;19.918;2023-07-09T07:56:56;99208.04000000001;;;23.9;45
61500;BME280;47361;49.996;19.918;2023-07-09T07:57:56;99209.63;;;24.0;45
61500;BME280;47361;49.996;19.918;2023-07-09T07:58:56;99208.84;;;24.1;46
61500;BME280;47361;49.996;19.918;2023-07-09T08:02:56;99209.33;;;24.2;46
61500;BME280;47361;49.996;19.918;2023-07-09T08:03:56;99202.67;;;24.3;45
61500;BME280;47361;49.996;19.918;2023-07-09T08:05:56;99203.8;;;24.4;45
61500;BME280;47361;49.996;19.918;2023-07-09T08:08:56;99198.86;;;24.5;45
61500;BME280;47361;49.996;19.918;2023-07-09T08:11:56;99202.42;;;24.6;45
61500;BME280;47361;49.996;19.918;2023-07-09T08:13:56;99200.8;;;24.7;44
61500;BME280;47361;49.996;19.918;2023-07-09T08:14:56;99197.78;;;24.8;43
61500;BME280;47361;49.996;19.918;2023-07-09T08:17:56;99196.25;;;24.9;43
61500;BME280;47361;49.996;19.918;2023-07-09T08:18:56;99199.3;;;25.0;44
61500;BME280;47361;49.996;19.918;2023-07-09T08:20:56;99198.35;;;25.1;44
61500;BME280;47361;49.996;19.918;2023-07-09T08:22:56;99199.8;;;25.2;44
61500;BME280;47361;49.996;19.918;2023-07-09T08:23:56;99198.61;;;25.3;42
61500;BME280;47361;49.996;19.918;2023-07-09T08:28:56;99199.58;;;25.4;44
61500;BME280;47361;49.996;19.918;2023-07-09T08:32:56;99196.56;;;25.5;43
61500;BME280;47361;49.996;19.918;2023-07-09T08:33:56;99196.03;;;25.6;42
61500;BME280;47361;49.996;19.918;2023-07-09T08:37:56;99195.67;;;25.7;44
61500;BME280;47361;49.996;19.918;2023-07-09T08:38:56;99198.58;;;25.8;41
61500;BME280;47361;49.996;19.918;2023-07-09T08:43:58;99190.55;;;25.9;42
61500;BME280;47361;49.996;19.918;2023-07-09T08:45:00;99192.64;;;26.0;42
61500;BME280;47361;49.996;19.918;2023-07-09T08:46:59;99189.42;;;26.1;42
61500;BME280;47361;49.996;19.918;2023-07-09T08:49:56;99188.36;;;26.2;41
61500;BME280;47361;49.996;19.918;2023-07-09T08:51:56;99188.84000000001;;;26.3;42
61500;BME280;47361;49.996;19.918;2023-07-09T08:53:56;99190.12;;;26.4;41
61500;BME280;47361;49.996;19.918;2023-07-09T08:58:56;99187.28;;;26.5;40
61500;BME280;47361;49.996;19.918;2023-07-09T09:00:56;99186.92;;;26.6;40
61500;BME280;47361;49.996;19.918;2023-07-09T09:03:57;99187.8;;;26.7;39
61500;BME280;47361;49.996;19.918;2023-07-09T09:05:56;99187.23;;;26.6;39
61500;BME280;47361;49.996;19.918;2023-07-09T09:06:58;99187.62000000001;;;26.7;39
61500;BME280;47361;49.996;19.918;2023-07-09T09:09:02;99181.34999999999;;;26.8;40
61500;BME280;47361;49.996;19.918;2023-07-09T09:09:57;99179.79000000001;;;26.9;40
61500;BME280;47361;49.996;19.918;2023-07-09T09:11:57;99178.09;;;27.0;40
61500;BME280;47361;49.996;19.918;2023-07-09T09:13:56;99179.17;;;27.1;39
61500;BME280;47361;49.996;19.918;2023-07-09T09:14:56;99176.53;;;27.2;39
61500;BME280;47361;49.996;19.918;2023-07-09T09:15:56;99181.14;;;27.1;38
61500;BME280;47361;49.996;19.918;2023-07-09T09:17:57;99179.43000000001;;;27.2;39
61500;BME280;47361;49.996;19.918;2023-07-09T09:27:56;99177.0;;;27.3;38
61500;BME280;47361;49.996;19.918;2023-07-09T09:28:56;99179.28;;;27.4;38
61500;BME280;47361;49.996;19.918;2023-07-09T09:32:56;99178.31999999999;;;27.5;37
61500;BME280;47361;49.996;19.918;2023-07-09T09:33:56;99177.76;;;27.6;39
61500;BME280;47361;49.996;19.918;2023-07-09T09:34:56;99179.76999999999;;;27.7;37
61500;BME280;47361;49.996;19.918;2023-07-09T09:39:01;99180.70999999999;;;27.8;38
61500;BME280;47361;49.996;19.918;2023-07-09T09:42:56;99179.38;;;27.9;38
61500;BME280;47361;49.996;19.918;2023-07-09T09:45:56;99178.64;;;28.0;37
61500;BME280;47361;49.996;19.918;2023-07-09T09:48:58;99184.52;;;28.1;36
61500;BME280;47361;49.996;19.918;2023-07-09T09:53:57;99184.67000000001;;;28.2;37
61500;BME280;47361;49.996;19.918;2023-07-09T09:55:01;99184.3;;;28.3;36
61500;BME280;47361;49.996;19.918;2023-07-09T09:55:56;99179.92;;;28.2;35
61500;BME280;47361;49.996;19.918;2023-07-09T09:58:56;99176.61;;;28.3;35
61500;BME280;47361;49.996;19.918;2023-07-09T10:00:56;99173.24;;;28.2;34
61500;BME280;47361;49.996;19.918;2023-07-09T10:01:56;99170.34;;;28.3;36
61500;BME280;47361;49.996;19.918;2023-07-09T10:02:56;99174.90000000001;;;28.4;37
61500;BME280;47361;49.996;19.918;2023-07-09T10:03:56;99173.19;;;28.5;36
61500;BME280;47361;49.996;19.918;2023-07-09T10:05:56;99168.61;;;28.6;35
61500;BME280;47361;49.996;19.918;2023-07-09T10:06:56;99167.17;;;28.5;34
61500;BME280;47361;49.996;19.918;2023-07-09T10:07:58;99166.97;;;28.6;35
61500;BME280;47361;49.996;19.918;2023-07-09T10:10:57;99168.11;;;28.7;35
61500;BME280;47361;49.996;19.918;2023-07-09T10:12:56;99170.1;;;28.8;35
61500;BME280;47361;49.996;19.918;2023-07-09T10:13:57;99166.94;;;28.9;34
61500;BME280;47361;49.996;19.918;2023-07-09T10:14:57;99166.52;;;29.0;34
61500;BME280;47361;49.996;19.918;2023-07-09T10:17:58;99167.26999999999;;;29.1;34
61500;BME280;47361;49.996;19.918;2023-07-09T10:19:56;99172.2;;;29.2;34
61500;BME280;47361;49.996;19.918;2023-07-09T10:22:57;99169.33;;;29.3;33
61500;BME280;47361;49.996;19.918;2023-07-09T10:23:57;99164.53;;;29.4;33
61500;BME280;47361;49.996;19.918;2023-07-09T10:24:57;99164.28;;;29.5;32
61500;BME280;47361;49.996;19.918;2023-07-09T10:29:00;99163.17;;;29.6;30
61500;BME280;47361;49.996;19.918;2023-07-09T10:31:58;99161.91;;;29.5;29
61500;BME280;47361;49.996;19.918;2023-07-09T10:32:59;99162.34;;;29.4;29
61500;BME280;47361;49.996;19.918;2023-07-09T10:34:57;99159.19;;;29.5;30
61500;BME280;47361;49.996;19.918;2023-07-09T10:37:00;99156.03;;;29.6;30
61500;BME280;47361;49.996;19.918;2023-07-09T10:38:57;99151.33;;;29.5;32
61500;BME280;47361;49.996;19.918;2023-07-09T10:40:56;99157.56;;;29.4;30
61500;BME280;47361;49.996;19.918;2023-07-09T10:41:56;99155.36;;;29.5;30
61500;BME280;47361;49.996;19.918;2023-07-09T10:43:57;99151.35;;;29.6;30
61500;BME280;47361;49.996;19.918;2023-07-09T10:44:57;99157.23000000001;;;29.7;30
61500;BME280;47361;49.996;19.918;2023-07-09T10:46:57;99157.75;;;29.8;31
61500;BME280;47361;49.996;19.918;2023-07-09T10:47:57;99156.20999999999;;;30.0;30
61500;BME280;47361;49.996;19.918;2023-07-09T10:49:56;99157.34;;;30.1;27
61500;BME280;47361;49.996;19.918;2023-07-09T10:51:59;99148.38;;;30.0;26
61500;BME280;47361;49.996;19.918;2023-07-09T10:53:56;99149.05;;;30.2;29
61500;BME280;47361;49.996;19.918;2023-07-09T10:57:57;99164.72;;;30.1;26
61500;BME280;47361;49.996;19.918;2023-07-09T11:01:57;99162.09;;;30.0;27
61500;BME280;47361;49.996;19.918;2023-07-09T11:04:57;99165.08;;;29.9;29
61500;BME280;47361;49.996;19.918;2023-07-09T11:05:56;99163.7;;;29.7;28
61500;BME280;47361;49.996;19.918;2023-07-09T11:06:56;99164.43000000001;;;29.6;29
61500;BME280;47361;49.996;19.918;2023-07-09T11:07:58;99166.5;;;29.4;30
61500;BME280;47361;49.996;19.918;2023-07-09T11:08:56;99165.14;;;29.5;29
61500;BME280;47361;49.996;19.918;2023-07-09T11:10:56;99161.32;;;29.6;29
61500;BME280;47361;49.996;19.918;2023-07-09T11:11:56;99157.56999999999;;;29.7;30
61500;BME280;47361;49.996;19.918;2023-07-09T11:12:57;99159.23;;;29.9;31
61500;BME280;47361;49.996;19.918;2023-07-09T11:13:56;99164.4;;;30.1;29
61500;BME280;47361;49.996;19.918;2023-07-09T11:15:56;99158.18000000001;;;30.2;28
61500;BME280;47361;49.996;19.918;2023-07-09T11:17:56;99168.82;;;30.1;28
61500;BME280;47361;49.996;19.918;2023-07-09T11:18:58;99163.0;;;30.2;28
61500;BME280;47361;49.996;19.918;2023-07-09T11:19:57;99161.67;;;30.0;28
61500;BME280;47361;49.996;19.918;2023-07-09T11:21:58;99157.84;;;29.8;29
61500;BME280;47361;49.996;19.918;2023-07-09T11:23:01;99161.64;;;29.7;29
61500;BME280;47361;49.996;19.918;2023-07-09T11:23:56;99157.3;;;29.5;28
61500;BME280;47361;49.996;19.918;2023-07-09T11:25:05;99161.27;;;29.3;29
61500;BME280;47361;49.996;19.918;2023-07-09T11:26:12;99157.06;;;29.2;29
61500;BME280;47361;49.996;19.918;2023-07-09T11:26:56;99154.14;;;29.1;30
61500;BME280;47361;49.996;19.918;2023-07-09T11:28:01;99154.01000000001;;;28.9;29
61500;BME280;47361;49.996;19.918;2023-07-09T11:29:57;99153.36;;;28.8;30
61500;BME280;47361;49.996;19.918;2023-07-09T11:32:06;99152.19;;;28.9;31
61500;BME280;47361;49.996;19.918;2023-07-09T11:32:56;99154.94;;;29.0;31
61500;BME280;47361;49.996;19.918;2023-07-09T11:33:59;99155.08;;;29.2;30
61500;BME280;47361;49.996;19.918;2023-07-09T11:35:05;99150.78;;;29.3;29
61500;BME280;47361;49.996;19.918;2023-07-09T11:37:56;99151.01;;;29.4;29
61500;BME280;47361;49.996;19.918;2023-07-09T11:38:57;99143.05;;;29.5;29
61500;BME280;47361;49.996;19.918;2023-07-09T11:40:56;99142.62999999999;;;29.6;30
61500;BME280;47361;49.996;19.918;2023-07-09T11:41:56;99146.01;;;29.7;31
61500;BME280;47361;49.996;19.918;2023-07-09T11:44:03;99139.63;;;29.8;29
61500;BME280;47361;49.996;19.918;2023-07-09T11:44:58;99140.85;;;29.9;29
61500;BME280;47361;49.996;19.918;2023-07-09T11:47:58;99136.13;;;30.0;29
61500;BME280;47361;49.996;19.918;2023-07-09T11:48:56;99135.0;;;30.1;29
61500;BME280;47361;49.996;19.918;2023-07-09T11:49:56;99135.17;;;30.2;29
61500;BME280;47361;49.996;19.918;2023-07-09T11:51:57;99136.51;;;30.4;30
61500;BME280;47361;49.996;19.918;2023-07-09T11:52:56;99135.96;;;30.5;29
61500;BME280;47361;49.996;19.918;2023-07-09T11:55:56;99132.98;;;30.6;30
61500;BME280;47361;49.996;19.918;2023-07-09T11:56:56;99130.03;;;30.7;30
61500;BME280;47361;49.996;19.918;2023-07-09T11:59:58;99130.39;;;30.8;28
61500;BME280;47361;49.996;19.918;2023-07-09T12:08:56;99130.98999999999;;;31.0;27
61500;BME280;47361;49.996;19.918;2023-07-09T12:10:56;99122.69;;;31.1;27
61500;BME280;47361;49.996;19.918;2023-07-09T12:11:56;99120.45000000001;;;31.2;28
61500;BME280;47361;49.996;19.918;2023-07-09T12:12:56;99124.08;;;31.3;27
61500;BME280;47361;49.996;19.918;2023-07-09T12:14:00;99123.85;;;31.2;26
61500;BME280;47361;49.996;19.918;2023-07-09T12:15:56;99119.51000000001;;;31.1;28
61500;BME280;47361;49.996;19.918;2023-07-09T12:16:56;99119.36;;;31.0;27
61500;BME280;47361;49.996;19.918;2023-07-09T12:17:56;99118.33;;;30.9;28
61500;BME280;47361;49.996;19.918;2023-07-09T12:18:58;99120.12;;;30.7;28
61500;BME280;47361;49.996;19.918;2023-07-09T12:19:56;99119.95;;;30.6;27
61500;BME280;47361;49.996;19.918;2023-07-09T12:20:56;99113.62000000001;;;30.5;27
61500;BME280;47361;49.996;19.918;2023-07-09T12:21:56;99117.62999999999;;;30.6;28
61500;BME280;47361;49.996;19.918;2023-07-09T12:22:56;99116.16;;;30.7;28
61500;BME280;47361;49.996;19.918;2023-07-09T12:23:56;99113.22;;;30.8;28
61500;BME280;47361;49.996;19.918;2023-07-09T12:24:56;99112.40000000001;;;30.9;28
61500;BME280;47361;49.996;19.918;2023-07-09T12:25:59;99111.05;;;31.0;27
61500;BME280;47361;49.996;19.918;2023-07-09T12:28:57;99107.95000000001;;;31.1;28
61500;BME280;47361;49.996;19.918;2023-07-09T12:29:56;99108.26;;;31.0;26